Lilly, Georgia
Current Conditions -  °F | °C
As of 10:15 PM on Tuesday 25 Nov 2014 (Local Time) from KCKF Reporting Station
Light Rain Light Rain  
Wind Chill: 45°   Ceiling: 2800
Heat Index: 48°   Visibility: 10mi
Dew Point: 45°   Wind: 8mph
Humidity: 89%   Direction: 340°NNW
Pressure: 30.06"   Gusts: NA
Location:  32.15°N, 83.88°W
Report Text: KCKF 260315Z AUTO 34007KT 10SM -RA OVC028 09/07 A3006 RMK AO2 T00910074
Loading
Personal Weather Stations






























Interactive Weather Map New forecast layout! Learn more

10-Day Weather Forecast

Advertisements
Track Severe Weather on mobile